createdAt,value
2019-02-26T00:01:05.951Z,97.00
2019-02-26T00:04:09.782Z,97.20
2019-02-26T00:07:16.263Z,97.30
2019-02-26T00:10:19.796Z,97.50
2019-02-26T00:13:25.071Z,97.60
2019-02-26T00:16:30.102Z,97.90
2019-02-26T00:19:33.921Z,98.00
2019-02-26T00:22:39.044Z,98.00
2019-02-26T00:25:43.372Z,98.00
2019-02-26T00:28:47.207Z,98.00
2019-02-26T00:31:52.844Z,97.90
2019-02-26T00:34:58.010Z,98.10
2019-02-26T00:38:02.061Z,98.30
2019-02-26T00:41:06.131Z,98.30
2019-02-26T00:44:10.026Z,98.30
2019-02-26T00:47:13.903Z,98.40
2019-02-26T00:50:17.722Z,98.30
2019-02-26T00:53:23.531Z,98.10
2019-02-26T00:56:29.141Z,98.10
2019-02-26T00:59:32.558Z,98.20
2019-02-26T01:02:36.428Z,98.20
2019-02-26T01:05:40.923Z,98.20
2019-02-26T01:08:47.111Z,98.20
2019-02-26T01:11:52.029Z,98.40
2019-02-26T01:14:56.605Z,98.50
2019-02-26T01:18:01.436Z,98.50
2019-02-26T01:21:05.913Z,98.50
2019-02-26T01:24:09.711Z,98.40
2019-02-26T01:27:13.561Z,98.70
2019-02-26T01:30:20.677Z,98.40
2019-02-26T01:33:24.626Z,98.40
2019-02-26T01:36:28.589Z,98.50
2019-02-26T01:39:32.452Z,98.30
2019-02-26T01:42:36.331Z,98.30
2019-02-26T01:45:40.156Z,98.50
2019-02-26T01:48:43.997Z,98.40
2019-02-26T01:51:49.594Z,98.50
2019-02-26T01:54:54.110Z,98.60
2019-02-26T01:57:59.315Z,98.60
2019-02-26T02:01:03.141Z,98.70
2019-02-26T02:04:08.781Z,98.70
2019-02-26T02:07:12.452Z,98.70
2019-02-26T02:10:16.597Z,98.60
2019-02-26T02:13:20.409Z,98.80
2019-02-26T02:16:26.522Z,98.90
2019-02-26T02:19:30.939Z,99.00
2019-02-26T02:22:37.576Z,99.00
2019-02-26T02:25:41.480Z,99.10
2019-02-26T02:28:46.234Z,99.30
2019-02-26T02:31:52.161Z,99.30
2019-02-26T02:34:58.266Z,99.20
2019-02-26T02:38:02.848Z,99.00
2019-02-26T02:41:06.541Z,98.90
2019-02-26T02:44:12.408Z,99.10
2019-02-26T02:47:15.888Z,99.20
2019-02-26T02:50:19.750Z,99.10
2019-02-26T02:53:24.518Z,99.10
2019-02-26T02:56:30.753Z,99.20
2019-02-26T02:59:36.745Z,99.10
2019-02-26T03:02:42.754Z,99.20
2019-02-26T03:05:45.895Z,99.20
2019-02-26T03:08:50.985Z,99.20
2019-02-26T03:11:55.280Z,99.20
2019-02-26T03:15:02.064Z,99.20
2019-02-26T03:18:06.552Z,99.20
2019-02-26T03:21:10.062Z,99.10
2019-02-26T03:24:13.942Z,99.20
2019-02-26T03:27:17.770Z,99.10
2019-02-26T03:30:32.095Z,99.10
2019-02-26T03:33:28.495Z,99.10
2019-02-26T03:36:34.159Z,99.00
2019-02-26T03:39:37.882Z,99.00
2019-02-26T03:42:43.416Z,99.00
2019-02-26T03:45:47.997Z,99.10
2019-02-26T03:48:52.032Z,99.10
2019-02-26T03:51:59.116Z,99.20
2019-02-26T03:55:03.495Z,99.40
2019-02-26T03:58:06.884Z,99.40
2019-02-26T04:01:13.067Z,99.60
2019-02-26T04:04:16.221Z,99.50
2019-02-26T04:07:22.287Z,99.60
2019-02-26T04:10:25.696Z,99.60
2019-02-26T04:13:29.538Z,99.80
2019-02-26T04:16:35.257Z,99.70
2019-02-26T04:19:43.535Z,99.60
2019-02-26T04:22:48.877Z,99.60
2019-02-26T04:26:07.815Z,99.80
2019-02-26T04:29:17.322Z,99.90
2019-02-26T04:32:38.312Z,99.70
2019-02-26T04:35:44.982Z,99.80
2019-02-26T04:39:15.827Z,99.90
2019-02-26T04:42:35.149Z,99.90
2019-02-26T04:45:41.362Z,99.80
2019-02-26T04:48:45.632Z,99.90
2019-02-26T04:51:50.484Z,99.90
2019-02-26T04:54:54.626Z,99.90
2019-02-26T04:57:58.575Z,99.90
2019-02-26T05:01:04.229Z,99.90
2019-02-26T05:04:07.904Z,99.90
2019-02-26T05:07:15.740Z,99.90
2019-02-26T05:10:17.284Z,99.90
2019-02-26T05:13:22.122Z,99.90
2019-02-26T05:16:29.037Z,99.90
2019-02-26T05:19:32.115Z,99.90
2019-02-26T05:22:35.951Z,99.90
2019-02-26T05:25:42.368Z,99.90
2019-02-26T05:28:46.902Z,99.90
2019-02-26T05:31:50.802Z,99.90
2019-02-26T05:34:54.602Z,99.90
2019-02-26T05:38:00.946Z,99.90
2019-02-26T05:41:03.928Z,99.90
2019-02-26T05:44:10.555Z,99.90
2019-02-26T05:47:15.413Z,99.90
2019-02-26T05:50:18.757Z,99.90
2019-02-26T05:53:22.602Z,99.90
2019-02-26T05:56:26.416Z,99.90
2019-02-26T05:59:30.303Z,99.90
2019-02-26T06:02:36.664Z,99.90
2019-02-26T06:05:43.476Z,99.90
2019-02-26T06:08:45.115Z,99.90
2019-02-26T06:11:50.065Z,99.90
2019-02-26T06:14:57.465Z,99.90
2019-02-26T06:17:59.516Z,99.90
2019-02-26T06:21:03.397Z,99.90
2019-02-26T06:24:07.278Z,99.90
2019-02-26T06:27:13.401Z,99.90
2019-02-26T06:30:16.671Z,99.90
2019-02-26T06:33:20.537Z,99.90
2019-02-26T06:36:25.856Z,99.90
2019-02-26T06:39:31.691Z,99.90
2019-02-26T06:42:36.250Z,99.90
2019-02-26T06:45:43.064Z,99.90
2019-02-26T06:48:46.332Z,99.90
2019-02-26T06:51:52.047Z,99.90
2019-02-26T06:54:59.562Z,99.90
2019-02-26T06:58:18.287Z,99.90
2019-02-26T07:01:22.506Z,99.90
2019-02-26T07:04:27.043Z,99.90
2019-02-26T07:07:40.629Z,99.90
2019-02-26T07:10:44.470Z,99.90
2019-02-26T07:13:48.322Z,99.90
2019-02-26T07:16:52.169Z,99.90
2019-02-26T07:19:57.717Z,99.90
2019-02-26T07:23:03.405Z,99.90
2019-02-26T07:26:07.704Z,99.90
2019-02-26T07:29:12.819Z,99.90
2019-02-26T07:32:17.967Z,99.90
2019-02-26T07:35:22.661Z,99.90
2019-02-26T07:38:27.650Z,99.90
2019-02-26T07:41:31.656Z,99.90
2019-02-26T07:44:35.655Z,99.90
2019-02-26T07:47:39.492Z,99.90
2019-02-26T07:50:45.714Z,99.90
2019-02-26T07:53:51.157Z,99.90
2019-02-26T07:56:55.636Z,99.90
2019-02-26T08:00:00.841Z,99.90
2019-02-26T08:03:04.753Z,99.90
2019-02-26T08:06:09.942Z,99.90
2019-02-26T08:09:14.716Z,99.90
2019-02-26T08:12:19.600Z,99.90
2019-02-26T08:15:23.455Z,99.90
2019-02-26T08:18:27.257Z,99.90
2019-02-26T08:21:31.107Z,99.90
2019-02-26T08:24:34.920Z,99.90
2019-02-26T08:27:38.791Z,99.90
2019-02-26T08:30:44.684Z,99.90
2019-02-26T08:33:50.912Z,99.90
2019-02-26T08:36:53.662Z,99.90
2019-02-26T08:39:58.309Z,99.90
2019-02-26T08:43:02.398Z,99.90
2019-02-26T08:46:07.333Z,99.90
2019-02-26T08:49:13.766Z,99.90
2019-02-26T08:52:19.425Z,99.90
2019-02-26T08:55:24.548Z,99.90
2019-02-26T08:58:28.342Z,99.90
2019-02-26T09:01:32.227Z,99.60
2019-02-26T09:04:37.968Z,99.00
2019-02-26T09:07:43.295Z,98.90
2019-02-26T09:10:48.637Z,98.40
2019-02-26T09:13:52.517Z,98.50
2019-02-26T09:16:57.066Z,97.90
2019-02-26T09:20:09.424Z,97.60
2019-02-26T09:23:07.471Z,97.50
2019-02-26T09:26:11.508Z,97.70
2019-02-26T09:29:17.244Z,96.80
2019-02-26T09:32:20.836Z,96.60
2019-02-26T09:35:28.387Z,96.90
2019-02-26T09:38:30.707Z,96.90
2019-02-26T09:41:35.550Z,97.20
2019-02-26T09:44:40.936Z,96.80
2019-02-26T09:47:47.326Z,96.40
2019-02-26T09:50:50.591Z,96.80
2019-02-26T09:53:56.498Z,98.00
2019-02-26T09:56:59.893Z,97.60
2019-02-26T10:00:05.773Z,96.90
2019-02-26T10:03:11.087Z,96.80
2019-02-26T10:06:16.016Z,95.90
2019-02-26T10:09:20.755Z,96.30
2019-02-26T10:12:24.590Z,96.20
2019-02-26T10:15:28.750Z,95.20
2019-02-26T10:18:33.036Z,95.70
2019-02-26T10:21:37.539Z,96.10
2019-02-26T10:24:42.458Z,95.00
2019-02-26T10:27:47.851Z,94.20
2019-02-26T10:30:51.812Z,94.30
2019-02-26T10:33:55.667Z,95.70
2019-02-26T10:36:59.492Z,96.00
2019-02-26T10:40:03.348Z,96.20
2019-02-26T10:43:07.167Z,95.60
2019-02-26T10:46:10.994Z,96.60
2019-02-26T10:49:14.781Z,97.10
2019-02-26T10:52:19.401Z,98.20
2019-02-26T10:55:30.538Z,98.30
2019-02-26T10:58:29.601Z,97.90
2019-02-26T11:01:33.841Z,97.60
2019-02-26T11:04:41.120Z,96.90
2019-02-26T11:07:43.308Z,97.20
2019-02-26T11:10:49.685Z,97.20
2019-02-26T11:13:53.869Z,96.40
2019-02-26T11:16:57.871Z,96.40
2019-02-26T11:20:04.336Z,96.10
2019-02-26T11:23:08.937Z,96.10
2019-02-26T11:26:14.859Z,96.40
2019-02-26T11:29:18.225Z,96.30
2019-02-26T11:32:22.076Z,96.50
2019-02-26T11:35:27.472Z,95.90
2019-02-26T11:38:31.367Z,95.80
2019-02-26T11:41:35.956Z,96.40
2019-02-26T11:44:39.895Z,96.40
2019-02-26T11:47:43.916Z,96.30
2019-02-26T11:50:47.742Z,96.30
2019-02-26T11:53:51.582Z,96.80
2019-02-26T11:56:55.434Z,96.90
2019-02-26T11:59:59.826Z,97.00
2019-02-26T12:03:05.109Z,96.50
2019-02-26T12:06:08.977Z,96.00
2019-02-26T12:09:14.188Z,96.10
2019-02-26T12:12:18.288Z,96.10
2019-02-26T12:15:22.345Z,96.50
2019-02-26T12:18:26.180Z,96.40
2019-02-26T12:21:32.373Z,95.20
2019-02-26T12:24:36.462Z,95.20
2019-02-26T12:27:41.322Z,95.10
2019-02-26T12:30:46.725Z,96.00
2019-02-26T12:33:50.775Z,95.80
2019-02-26T12:36:57.217Z,95.90
2019-02-26T12:40:00.129Z,95.30
2019-02-26T12:43:06.603Z,95.00
2019-02-26T12:46:09.559Z,94.80
2019-02-26T12:49:15.769Z,94.60
2019-02-26T12:52:21.913Z,94.90
2019-02-26T12:55:29.524Z,95.90
2019-02-26T12:58:30.135Z,95.00
2019-02-26T13:01:36.042Z,95.30
2019-02-26T13:04:41.075Z,95.40
2019-02-26T13:07:44.941Z,94.20
2019-02-26T13:10:54.363Z,94.00
2019-02-26T13:13:54.353Z,93.30
2019-02-26T13:17:00.096Z,93.10
2019-02-26T13:20:05.825Z,92.40
2019-02-26T13:23:20.844Z,91.50
2019-02-26T13:26:19.709Z,92.10
2019-02-26T13:29:21.473Z,92.20
2019-02-26T13:32:31.506Z,91.80
2019-02-26T13:35:30.930Z,91.40
2019-02-26T13:38:44.061Z,91.20
2019-02-26T13:41:40.337Z,91.30
2019-02-26T13:44:44.297Z,90.60
2019-02-26T13:47:48.150Z,90.20
2019-02-26T13:50:51.997Z,89.20
2019-02-26T13:53:56.027Z,87.80
2019-02-26T13:56:59.865Z,87.50
2019-02-26T14:00:05.193Z,87.50
2019-02-26T14:03:09.038Z,87.10
2019-02-26T14:06:12.927Z,86.30
2019-02-26T14:09:16.755Z,87.20
2019-02-26T14:12:20.606Z,86.70
2019-02-26T14:15:26.222Z,86.90
2019-02-26T14:18:30.091Z,85.20
2019-02-26T14:21:33.903Z,85.70
2019-02-26T14:24:37.784Z,85.90
2019-02-26T14:27:41.603Z,86.20
2019-02-26T14:30:45.450Z,85.80
2019-02-26T14:33:49.312Z,85.10
2019-02-26T14:36:53.620Z,82.70
2019-02-26T14:39:58.422Z,83.60
2019-02-26T14:43:02.283Z,80.00
2019-02-26T14:46:06.136Z,81.40
2019-02-26T14:49:09.963Z,81.60
2019-02-26T14:52:13.852Z,82.80
2019-02-26T14:55:17.893Z,83.80
2019-02-26T14:58:21.757Z,84.50
2019-02-26T15:01:26.030Z,85.60
2019-02-26T15:04:31.520Z,85.60
2019-02-26T15:07:35.573Z,86.00
2019-02-26T15:10:40.423Z,87.10
2019-02-26T15:13:44.372Z,87.90
2019-02-26T15:16:48.262Z,87.80
2019-02-26T15:19:53.285Z,89.10
2019-02-26T15:22:57.363Z,88.50
2019-02-26T15:26:01.193Z,88.50
2019-02-26T15:29:05.060Z,86.90
2019-02-26T15:32:08.877Z,82.90
2019-02-26T15:35:13.222Z,83.70
2019-02-26T15:38:17.322Z,83.60
2019-02-26T15:41:21.942Z,84.40
2019-02-26T15:44:26.188Z,84.40
2019-02-26T15:47:32.572Z,84.50
2019-02-26T15:50:37.696Z,85.60
2019-02-26T15:53:42.478Z,86.70
2019-02-26T15:56:46.326Z,86.70
2019-02-26T15:59:51.307Z,86.00
2019-02-26T16:02:58.968Z,86.10
2019-02-26T16:06:01.561Z,87.10
2019-02-26T16:09:06.712Z,87.30
2019-02-26T16:12:10.592Z,87.80
2019-02-26T16:15:18.076Z,88.10
2019-02-26T16:18:21.932Z,88.50
2019-02-26T16:21:25.757Z,89.50
2019-02-26T16:24:29.825Z,90.00
2019-02-26T16:27:37.720Z,90.10
2019-02-26T16:30:39.254Z,90.50
2019-02-26T16:33:46.529Z,90.80
2019-02-26T16:36:48.599Z,90.60
2019-02-26T16:39:52.455Z,90.60
2019-02-26T16:42:56.332Z,90.80
2019-02-26T16:46:00.172Z,90.70
2019-02-26T16:49:04.038Z,91.10
2019-02-26T16:52:07.873Z,91.20
2019-02-26T16:55:14.137Z,91.00
2019-02-26T16:58:18.212Z,91.20
2019-02-26T17:01:22.547Z,91.40
2019-02-26T17:04:26.542Z,91.70
2019-02-26T17:07:32.164Z,91.90
2019-02-26T17:10:36.081Z,92.30
2019-02-26T17:13:42.668Z,92.00
2019-02-26T17:16:45.533Z,92.10
2019-02-26T17:19:49.744Z,92.30
2019-02-26T17:22:53.648Z,92.30
2019-02-26T17:26:00.582Z,92.40
2019-02-26T17:29:04.463Z,92.90
2019-02-26T17:32:08.330Z,93.40
2019-02-26T17:35:12.834Z,92.80
2019-02-26T17:38:18.079Z,94.10
2019-02-26T17:41:22.241Z,94.40
2019-02-26T17:44:26.083Z,93.80
2019-02-26T17:47:29.909Z,93.60
2019-02-26T17:50:38.650Z,93.00
2019-02-26T17:53:42.862Z,92.50
2019-02-26T17:56:46.733Z,92.10
2019-02-26T17:59:50.581Z,92.10
2019-02-26T18:02:54.537Z,91.90
2019-02-26T18:05:58.373Z,91.70
2019-02-26T18:09:03.643Z,91.80
2019-02-26T18:12:07.563Z,91.80
2019-02-26T18:15:16.728Z,92.00
2019-02-26T18:18:18.322Z,92.30
2019-02-26T18:21:22.143Z,92.50
2019-02-26T18:24:26.016Z,93.10
2019-02-26T18:27:30.604Z,93.80
2019-02-26T18:30:35.672Z,93.90
2019-02-26T18:33:39.563Z,94.30
2019-02-26T18:36:45.118Z,94.40
2019-02-26T18:39:48.902Z,94.60
2019-02-26T18:42:53.635Z,94.80
2019-02-26T18:46:00.453Z,94.80
2019-02-26T18:49:05.038Z,95.10
2019-02-26T18:52:09.117Z,95.10
2019-02-26T18:55:15.498Z,95.40
2019-02-26T18:58:19.389Z,95.60
2019-02-26T19:01:23.411Z,95.90
2019-02-26T19:04:27.313Z,95.70
2019-02-26T19:07:33.856Z,96.30
2019-02-26T19:10:36.796Z,96.40
2019-02-26T19:13:42.189Z,96.80
2019-02-26T19:16:46.122Z,97.10
2019-02-26T19:19:50.557Z,97.70
2019-02-26T19:22:58.515Z,98.10
2019-02-26T19:26:00.301Z,98.20
2019-02-26T19:29:04.257Z,98.20
2019-02-26T19:32:08.300Z,98.90
2019-02-26T19:35:12.638Z,99.30
2019-02-26T19:38:16.895Z,99.30
2019-02-26T19:41:20.776Z,99.20
2019-02-26T19:44:24.736Z,99.80
2019-02-26T19:47:28.706Z,99.90
2019-02-26T19:50:32.711Z,99.90
2019-02-26T19:53:36.611Z,99.90
2019-02-26T19:56:40.513Z,99.90
2019-02-26T19:59:46.941Z,99.90
2019-02-26T20:02:50.095Z,99.90
2019-02-26T20:05:54.056Z,99.90
2019-02-26T20:08:57.927Z,99.90
2019-02-26T20:12:01.839Z,99.90
2019-02-26T20:15:07.995Z,99.90
2019-02-26T20:18:20.266Z,99.90
2019-02-26T20:21:19.647Z,99.90
2019-02-26T20:24:23.022Z,99.90
2019-02-26T20:27:26.907Z,99.90
2019-02-26T20:30:30.996Z,99.90
2019-02-26T20:33:35.112Z,99.90
2019-02-26T20:36:39.017Z,99.90
2019-02-26T20:39:44.202Z,99.90
2019-02-26T20:42:48.129Z,99.90
2019-02-26T20:45:52.030Z,99.90
2019-02-26T20:48:55.954Z,99.90
2019-02-26T20:52:00.202Z,99.90
2019-02-26T20:55:04.748Z,99.90
2019-02-26T20:58:09.683Z,99.90
2019-02-26T21:01:14.067Z,99.90
2019-02-26T21:04:18.274Z,99.90
2019-02-26T21:07:24.535Z,99.90
2019-02-26T21:10:27.634Z,99.90
2019-02-26T21:13:34.638Z,99.90
2019-02-26T21:16:36.994Z,99.90
2019-02-26T21:19:40.992Z,99.90
2019-02-26T21:22:45.097Z,99.90
2019-02-26T21:25:48.888Z,99.90
2019-02-26T21:28:52.968Z,99.90
2019-02-26T21:31:56.886Z,99.90
2019-02-26T21:35:00.860Z,99.90
2019-02-26T21:38:05.944Z,99.90
2019-02-26T21:41:10.324Z,99.90
2019-02-26T21:44:14.239Z,99.90
2019-02-26T21:47:20.197Z,99.90
2019-02-26T21:50:23.601Z,99.90
2019-02-26T21:53:27.481Z,99.90
2019-02-26T21:56:31.314Z,99.90
2019-02-26T21:59:35.135Z,99.90
2019-02-26T22:02:38.982Z,99.90
2019-02-26T22:05:42.792Z,99.90
2019-02-26T22:08:46.760Z,99.90
2019-02-26T22:11:50.876Z,99.90
2019-02-26T22:14:55.141Z,99.90
2019-02-26T22:17:59.033Z,99.90
2019-02-26T22:21:02.847Z,99.90
2019-02-26T22:24:06.970Z,99.90
2019-02-26T22:27:11.599Z,99.90
2019-02-26T22:30:22.172Z,99.90
2019-02-26T22:33:27.246Z,99.90
2019-02-26T22:36:33.308Z,99.90
2019-02-26T22:39:39.358Z,99.90
2019-02-26T22:42:43.293Z,99.90
2019-02-26T22:45:47.125Z,99.90
2019-02-26T22:48:50.981Z,99.90
2019-02-26T22:51:58.414Z,99.90
2019-02-26T22:55:00.314Z,99.90
2019-02-26T22:58:04.141Z,99.90
2019-02-26T23:01:15.068Z,99.90
2019-02-26T23:04:19.825Z,99.90
2019-02-26T23:07:24.320Z,99.90
2019-02-26T23:10:28.858Z,99.90
2019-02-26T23:13:32.819Z,99.90
2019-02-26T23:16:36.633Z,99.90
2019-02-26T23:19:40.487Z,99.90
2019-02-26T23:22:44.395Z,99.90
2019-02-26T23:25:48.297Z,99.90
2019-02-26T23:28:54.479Z,99.90
2019-02-26T23:31:57.765Z,99.90
2019-02-26T23:35:04.602Z,99.90
2019-02-26T23:38:09.179Z,99.90
2019-02-26T23:41:13.412Z,99.90
2019-02-26T23:44:17.991Z,99.90
2019-02-26T23:47:22.716Z,99.90
2019-02-26T23:50:26.563Z,99.90
2019-02-26T23:53:33.903Z,99.90
2019-02-26T23:56:35.907Z,99.90
2019-02-26T23:59:39.726Z,99.90
